createdAt,value
2023-03-23T15:59:01.308Z,19.79
2023-03-23T16:01:31.414Z,19.89
2023-03-23T16:04:07.266Z,19.91
2023-03-23T16:06:36.922Z,20.00
2023-03-23T16:09:07.126Z,20.06
2023-03-23T16:11:36.228Z,20.16
2023-03-23T16:14:04.493Z,20.26
2023-03-23T16:16:38.870Z,20.35
2023-03-23T16:19:07.525Z,20.48
2023-03-23T16:21:37.780Z,20.56
2023-03-23T16:24:06.405Z,20.64
2023-03-23T16:26:34.798Z,20.67
2023-03-23T16:29:12.951Z,20.69
2023-03-23T16:31:43.109Z,20.70
2023-03-23T16:34:11.334Z,20.70
2023-03-23T16:36:39.509Z,20.64
2023-03-23T16:39:07.889Z,20.59
2023-03-23T16:41:36.490Z,20.54
2023-03-23T16:44:04.886Z,20.42
2023-03-23T16:46:33.664Z,20.31
2023-03-23T16:49:01.876Z,20.25
2023-03-23T16:51:30.062Z,20.22
2023-03-23T16:53:58.393Z,20.19
2023-03-23T16:56:26.580Z,20.16
2023-03-23T16:58:54.797Z,20.17
2023-03-23T17:01:23.396Z,20.23
2023-03-23T17:03:51.790Z,20.26
2023-03-23T17:06:20.413Z,20.26
2023-03-23T17:08:49.206Z,20.27
2023-03-23T17:11:17.390Z,20.33
2023-03-23T17:13:45.480Z,20.37
2023-03-23T17:16:13.656Z,20.40
2023-03-23T17:18:41.955Z,20.46
2023-03-23T17:21:10.218Z,20.45
2023-03-23T17:23:39.345Z,20.41
2023-03-23T17:26:07.996Z,20.34
2023-03-23T17:28:36.044Z,20.24
2023-03-23T17:31:04.537Z,20.18
2023-03-23T17:33:33.144Z,20.09
2023-03-23T17:36:01.298Z,20.01
2023-03-23T17:38:30.078Z,19.94
2023-03-23T17:40:59.970Z,19.85
2023-03-23T17:43:28.521Z,19.72
2023-03-23T17:45:56.885Z,19.58
2023-03-23T17:48:25.132Z,19.44
2023-03-23T17:50:55.616Z,19.33
2023-03-23T17:53:26.207Z,19.25
2023-03-23T17:55:54.754Z,19.18
2023-03-23T17:58:24.250Z,19.13
2023-03-23T18:00:54.848Z,19.04
2023-03-23T18:03:25.264Z,18.99
2023-03-23T18:06:00.091Z,18.94
2023-03-23T18:08:29.242Z,18.89
2023-03-23T18:10:58.381Z,18.83
2023-03-23T18:13:28.534Z,18.74
2023-03-23T18:15:57.286Z,18.64
2023-03-23T18:18:26.092Z,18.57
2023-03-23T18:21:08.243Z,18.51
2023-03-23T18:23:45.953Z,18.43
2023-03-23T18:26:19.251Z,18.36
2023-03-23T18:28:50.134Z,18.30
2023-03-23T18:31:20.129Z,18.25
2023-03-23T18:33:50.742Z,18.21
2023-03-23T18:36:22.872Z,18.15
2023-03-23T18:38:51.580Z,18.11
2023-03-23T18:41:19.829Z,18.04
2023-03-23T18:43:48.812Z,18.00
2023-03-23T18:46:18.394Z,18.00
2023-03-23T18:48:46.941Z,17.98
2023-03-23T18:51:15.327Z,17.94
2023-03-23T18:53:45.015Z,17.92
2023-03-23T18:56:16.254Z,17.90
2023-03-23T18:58:46.429Z,17.88
2023-03-23T19:01:17.312Z,17.87
2023-03-23T19:03:46.422Z,17.86
2023-03-23T19:06:20.917Z,17.86
2023-03-23T19:08:50.244Z,17.82
2023-03-23T19:11:19.659Z,17.78
2023-03-23T19:14:00.602Z,17.77
2023-03-23T19:16:35.181Z,17.75
2023-03-23T19:19:05.252Z,17.69
2023-03-23T19:21:34.119Z,17.69
2023-03-23T19:24:03.662Z,17.68
2023-03-23T19:26:37.637Z,17.63
2023-03-23T19:29:26.280Z,17.61
2023-03-23T19:31:57.247Z,17.60
2023-03-23T19:34:27.301Z,17.58
2023-03-23T19:37:05.368Z,17.56
2023-03-23T19:39:35.118Z,17.51
2023-03-23T19:42:04.385Z,17.48
2023-03-23T19:44:34.908Z,17.46
2023-03-23T19:47:03.899Z,17.44
2023-03-23T19:49:32.122Z,17.43
2023-03-23T19:52:09.099Z,17.40
2023-03-23T19:54:41.014Z,17.37
2023-03-23T19:57:10.236Z,17.33
2023-03-23T19:59:39.347Z,17.30
2023-03-23T20:02:08.843Z,17.29
2023-03-23T20:04:37.538Z,17.28
2023-03-23T20:07:07.629Z,17.26
2023-03-23T20:09:38.156Z,17.25
2023-03-23T20:12:07.328Z,17.25
2023-03-23T20:14:36.978Z,17.21
2023-03-23T20:17:06.151Z,17.17
2023-03-23T20:19:36.547Z,17.14
2023-03-23T20:22:05.765Z,17.13
2023-03-23T20:24:34.024Z,17.14
2023-03-23T20:27:03.215Z,17.13
2023-03-23T20:29:31.792Z,17.13
2023-03-23T20:32:00.019Z,17.14
2023-03-23T20:34:28.378Z,17.15
2023-03-23T20:36:58.254Z,17.14
2023-03-23T20:39:27.974Z,17.13
2023-03-23T20:41:57.379Z,17.11
2023-03-23T20:44:26.932Z,17.10
2023-03-23T20:46:55.781Z,17.09
2023-03-23T20:49:24.814Z,17.08
2023-03-23T20:51:54.226Z,17.08
2023-03-23T20:54:23.098Z,17.08
2023-03-23T20:56:52.012Z,17.08
2023-03-23T20:59:21.502Z,17.07
2023-03-23T21:01:49.706Z,17.08
2023-03-23T21:04:21.907Z,17.08
2023-03-23T21:06:50.066Z,17.08
2023-03-23T21:09:18.471Z,17.03
2023-03-23T21:11:47.459Z,17.00
2023-03-23T21:14:16.454Z,16.97
2023-03-23T21:16:45.075Z,16.95
2023-03-23T21:19:13.593Z,16.93
2023-03-23T21:21:42.172Z,16.90
2023-03-23T21:24:31.645Z,16.87
2023-03-23T21:27:01.330Z,16.83
2023-03-23T21:29:29.592Z,16.81
2023-03-23T21:34:30.300Z,16.78
2023-03-23T21:36:58.707Z,16.76
2023-03-23T21:39:27.389Z,16.74
2023-03-23T21:41:55.524Z,16.74
2023-03-23T21:44:23.777Z,16.74
2023-03-23T21:46:51.819Z,16.74
2023-03-23T21:49:20.490Z,16.74
2023-03-23T21:51:48.960Z,16.75
2023-03-23T21:54:17.465Z,16.75
2023-03-23T21:56:45.632Z,16.75
2023-03-23T21:59:14.637Z,16.75
2023-03-23T22:01:43.094Z,16.75
2023-03-23T22:04:11.395Z,16.73
2023-03-23T22:06:39.926Z,16.72
2023-03-23T22:09:08.312Z,16.69
2023-03-23T22:11:38.125Z,16.67
2023-03-23T22:14:07.536Z,16.64
2023-03-23T22:16:36.141Z,16.60
2023-03-23T22:19:04.356Z,16.58
2023-03-23T22:21:32.775Z,16.56
2023-03-23T22:24:01.145Z,16.55
2023-03-23T22:26:30.285Z,16.54
2023-03-23T22:29:00.540Z,16.53
2023-03-23T22:31:31.994Z,16.49
2023-03-23T22:34:01.290Z,16.46
2023-03-23T22:36:30.842Z,16.43
2023-03-23T22:39:00.165Z,16.40
2023-03-23T22:41:35.176Z,16.38
2023-03-23T22:44:12.129Z,16.35
2023-03-23T22:46:41.626Z,16.33
2023-03-23T22:49:10.145Z,16.32
2023-03-23T22:51:39.138Z,16.31
2023-03-23T22:54:07.697Z,16.32
2023-03-23T22:56:35.795Z,16.33
2023-03-23T22:59:08.391Z,16.32
2023-03-23T23:01:36.706Z,16.30
2023-03-23T23:04:05.561Z,16.30
2023-03-23T23:06:36.199Z,16.30
2023-03-23T23:09:05.518Z,16.29
2023-03-23T23:11:33.786Z,16.28
2023-03-23T23:14:03.535Z,16.27
2023-03-23T23:16:32.258Z,16.26
2023-03-23T23:19:00.436Z,16.26
2023-03-23T23:21:28.899Z,16.25
2023-03-23T23:23:57.154Z,16.22
2023-03-23T23:26:25.417Z,16.19
2023-03-23T23:28:53.992Z,16.16
2023-03-23T23:31:23.829Z,16.14
2023-03-23T23:33:57.781Z,16.13
2023-03-23T23:36:27.519Z,16.11
2023-03-23T23:38:57.599Z,16.10
2023-03-23T23:41:26.488Z,16.10
2023-03-23T23:43:54.558Z,16.09
2023-03-23T23:46:22.784Z,16.09
2023-03-23T23:48:51.297Z,16.09
2023-03-23T23:51:20.165Z,16.09
2023-03-23T23:53:48.475Z,16.09
2023-03-23T23:56:17.178Z,16.09
2023-03-23T23:58:45.674Z,16.08
